createdAt,value
2019-03-17T00:02:31.051Z,95840.45
2019-03-17T00:05:18.907Z,95835.09
2019-03-17T00:08:06.746Z,95827.41
2019-03-17T00:10:54.688Z,95826.09
2019-03-17T00:16:11.064Z,95827.41
2019-03-17T00:18:59.143Z,95824.13
2019-03-17T00:21:29.564Z,95821.08
2019-03-17T00:27:05.499Z,95813.20
2019-03-17T00:29:53.399Z,95815.23
2019-03-17T00:32:41.363Z,95816.01
2019-03-17T00:35:10.074Z,95812.69
2019-03-17T00:37:58.000Z,95810.65
2019-03-17T00:40:45.857Z,95809.86
2019-03-17T00:43:33.750Z,95805.54
2019-03-17T00:46:21.660Z,95807.33
2019-03-17T00:49:09.478Z,95807.59
2019-03-17T00:51:57.288Z,95808.34
2019-03-17T00:54:25.976Z,95805.23
2019-03-17T00:56:54.608Z,95806.99
2019-03-17T00:59:42.544Z,95798.80
2019-03-17T01:02:30.442Z,95792.63
2019-03-17T01:05:18.616Z,95788.75
2019-03-17T01:08:06.469Z,95788.98
2019-03-17T01:10:54.329Z,95787.14
2019-03-17T01:13:42.194Z,95780.50
2019-03-17T01:16:30.052Z,95773.58
2019-03-17T01:19:17.861Z,95766.92
2019-03-17T01:21:46.715Z,95763.61
2019-03-17T01:24:15.369Z,95761.51
2019-03-17T01:29:37.873Z,95756.48
2019-03-17T01:32:25.710Z,95746.39
2019-03-17T01:34:54.329Z,95738.70
2019-03-17T01:37:42.630Z,95736.63
2019-03-17T01:40:51.062Z,95728.68
2019-03-17T01:43:38.954Z,95727.86
2019-03-17T01:46:26.885Z,95730.19
2019-03-17T01:49:14.654Z,95724.63
2019-03-17T01:52:02.509Z,95723.63
2019-03-17T01:54:50.353Z,95726.70
2019-03-17T01:57:38.419Z,95722.30
2019-03-17T02:03:33.195Z,95703.03
2019-03-17T02:06:21.362Z,95698.50
2019-03-17T02:09:09.200Z,95696.12
2019-03-17T02:11:57.283Z,95684.55
2019-03-17T02:14:45.573Z,95684.14
2019-03-17T02:17:33.413Z,95678.83
2019-03-17T02:20:02.041Z,95679.44
2019-03-17T02:22:49.802Z,95671.58
2019-03-17T02:25:31.269Z,95675.73
2019-03-17T02:27:59.919Z,95666.82
2019-03-17T02:30:47.740Z,95661.96
2019-03-17T02:36:42.519Z,95656.10
2019-03-17T02:39:30.414Z,95650.77
2019-03-17T02:42:18.456Z,95648.97
2019-03-17T02:47:53.873Z,95642.06
2019-03-17T02:53:48.641Z,95639.54
2019-03-17T02:56:36.480Z,95632.41
2019-03-17T02:59:24.293Z,95627.78
2019-03-17T03:04:59.666Z,95626.25
2019-03-17T03:07:47.898Z,95624.20
2019-03-17T03:10:35.737Z,95626.75
2019-03-17T03:13:04.384Z,95633.11
2019-03-17T03:15:52.257Z,95631.07
2019-03-17T03:18:40.211Z,95625.20
2019-03-17T03:21:28.126Z,95635.41
2019-03-17T03:24:16.054Z,95633.06
2019-03-17T03:27:03.884Z,95627.16
2019-03-17T03:29:52.158Z,95629.45
2019-03-17T03:35:46.951Z,95620.19
2019-03-17T03:41:22.500Z,95620.86
2019-03-17T03:43:51.400Z,95624.58
2019-03-17T03:49:26.809Z,95617.91
2019-03-17T03:52:14.960Z,95621.70
2019-03-17T03:55:02.925Z,95612.20
2019-03-17T03:57:31.562Z,95609.84
2019-03-17T04:00:00.506Z,95614.58
2019-03-17T04:05:23.594Z,95606.95
2019-03-17T04:08:11.432Z,95616.81
2019-03-17T04:13:33.256Z,95602.64
2019-03-17T04:16:01.963Z,95600.01
2019-03-17T04:18:49.977Z,95603.09
2019-03-17T04:21:37.833Z,95593.66
2019-03-17T04:24:06.479Z,95586.26
2019-03-17T04:26:54.424Z,95588.54
2019-03-17T04:29:42.194Z,95584.50
2019-03-17T04:32:30.118Z,95584.15
2019-03-17T04:35:17.967Z,95583.86
2019-03-17T04:37:46.603Z,95586.73
2019-03-17T04:43:42.726Z,95588.72
2019-03-17T04:46:30.729Z,95580.13
2019-03-17T04:49:18.483Z,95579.68
2019-03-17T04:52:06.307Z,95576.73
2019-03-17T04:57:28.038Z,95565.74
2019-03-17T05:00:15.897Z,95556.83
2019-03-17T05:02:44.590Z,95548.92
2019-03-17T05:05:13.370Z,95552.50
2019-03-17T05:07:42.083Z,95556.50
2019-03-17T05:10:31.436Z,95544.77
2019-03-17T05:13:19.401Z,95548.68
2019-03-17T05:16:07.284Z,95546.32
2019-03-17T05:18:55.362Z,95540.38
2019-03-17T05:24:11.700Z,95538.27
2019-03-17T05:26:40.389Z,95539.59
2019-03-17T05:29:28.347Z,95543.96
2019-03-17T05:31:57.062Z,95536.85
2019-03-17T05:34:44.763Z,95542.41
2019-03-17T05:37:13.441Z,95541.71
2019-03-17T05:39:42.081Z,95540.39
2019-03-17T05:42:10.742Z,95544.59
2019-03-17T05:44:39.538Z,95547.71
2019-03-17T05:47:27.351Z,95545.75
2019-03-17T05:50:15.182Z,95549.56
2019-03-17T05:52:43.859Z,95550.83
2019-03-17T05:55:12.511Z,95547.13
2019-03-17T05:58:00.366Z,95548.44
2019-03-17T06:00:29.008Z,95550.54
2019-03-17T06:02:57.707Z,95550.93
2019-03-17T06:05:45.624Z,95550.05
2019-03-17T06:08:14.308Z,95558.80
2019-03-17T06:11:02.158Z,95554.75
2019-03-17T06:13:30.843Z,95557.33
2019-03-17T06:15:59.744Z,95556.14
2019-03-17T06:18:47.528Z,95557.93
2019-03-17T06:21:35.401Z,95560.64
2019-03-17T06:24:03.995Z,95557.02
2019-03-17T06:26:51.824Z,95561.39
2019-03-17T06:30:00.394Z,95552.73
2019-03-17T06:32:28.996Z,95556.18
2019-03-17T06:34:57.601Z,95554.70
2019-03-17T06:37:31.058Z,95555.52
2019-03-17T06:39:56.768Z,95554.21
2019-03-17T06:42:25.306Z,95557.05
2019-03-17T06:44:53.924Z,95547.85
2019-03-17T06:47:22.561Z,95552.37
2019-03-17T06:49:51.267Z,95554.59
2019-03-17T06:52:39.129Z,95556.91
2019-03-17T06:55:47.592Z,95556.06
2019-03-17T06:58:16.177Z,95558.02
2019-03-17T07:01:04.114Z,95560.88
2019-03-17T07:03:32.770Z,95561.11
2019-03-17T07:06:20.606Z,95566.55
2019-03-17T07:08:49.265Z,95566.30
2019-03-17T07:11:17.954Z,95567.20
2019-03-17T07:13:46.684Z,95574.44
2019-03-17T07:16:15.380Z,95586.44
2019-03-17T07:18:43.969Z,95589.53
2019-03-17T07:21:12.650Z,95585.98
2019-03-17T07:23:41.287Z,95584.20
2019-03-17T07:26:10.007Z,95588.37
2019-03-17T07:28:38.649Z,95591.88
2019-03-17T07:31:26.481Z,95597.31
2019-03-17T07:34:14.438Z,95591.89
2019-03-17T07:36:43.151Z,95591.41
2019-03-17T07:39:12.434Z,95591.33
2019-03-17T07:41:42.141Z,95590.64
2019-03-17T07:44:29.965Z,95592.64
2019-03-17T07:47:17.956Z,95591.87
2019-03-17T07:49:46.670Z,95594.02
2019-03-17T07:52:15.324Z,95584.63
2019-03-17T07:55:03.282Z,95585.08
2019-03-17T07:57:51.144Z,95579.16
2019-03-17T08:00:39.032Z,95588.87
2019-03-17T08:03:27.010Z,95574.38
2019-03-17T08:06:14.887Z,95573.09
2019-03-17T08:09:02.717Z,95572.42
2019-03-17T08:11:50.587Z,95580.97
2019-03-17T08:14:38.424Z,95574.80
2019-03-17T08:17:07.109Z,95566.47
2019-03-17T08:19:54.949Z,95578.12
2019-03-17T08:22:23.614Z,95571.21
2019-03-17T08:24:52.383Z,95574.51
2019-03-17T08:27:40.236Z,95576.11
2019-03-17T08:30:28.155Z,95592.80
2019-03-17T08:32:56.843Z,95586.47
2019-03-17T08:35:44.791Z,95579.63
2019-03-17T08:38:32.640Z,95579.59
2019-03-17T08:41:01.347Z,95565.41
2019-03-17T08:43:54.112Z,95572.81
2019-03-17T08:46:19.653Z,95571.59
2019-03-17T08:48:48.362Z,95576.06
2019-03-17T08:51:16.908Z,95565.17
2019-03-17T08:53:45.636Z,95565.45
2019-03-17T08:56:14.326Z,95560.72
2019-03-17T08:58:43.032Z,95565.97
2019-03-17T09:01:30.866Z,95557.45
2019-03-17T09:04:18.872Z,95569.11
2019-03-17T09:07:06.598Z,95562.78
2019-03-17T09:12:28.749Z,95564.23
2019-03-17T09:14:57.451Z,95562.35
2019-03-17T09:17:45.298Z,95561.44
2019-03-17T09:23:26.144Z,95556.72
2019-03-17T09:26:14.065Z,95556.94
2019-03-17T09:29:01.824Z,95547.78
2019-03-17T09:31:49.720Z,95533.52
2019-03-17T09:34:18.376Z,95544.65
2019-03-17T09:36:47.082Z,95539.02
2019-03-17T09:39:34.955Z,95523.94
2019-03-17T09:42:22.806Z,95525.44
2019-03-17T09:44:51.457Z,95531.95
2019-03-17T09:47:20.171Z,95532.44
2019-03-17T09:49:48.809Z,95525.73
2019-03-17T09:52:17.679Z,95524.31
2019-03-17T09:55:05.597Z,95529.50
2019-03-17T09:57:53.564Z,95519.19
2019-03-17T10:00:42.930Z,95522.16
2019-03-17T10:03:30.896Z,95512.05
2019-03-17T10:06:18.687Z,95514.89
2019-03-17T10:09:06.608Z,95514.22
2019-03-17T10:11:54.458Z,95513.66
2019-03-17T10:14:42.379Z,95508.75
2019-03-17T10:17:11.104Z,95546.69
2019-03-17T10:19:58.799Z,95533.56
2019-03-17T10:22:46.573Z,95516.97
2019-03-17T10:25:34.325Z,95515.55
2019-03-17T10:28:22.211Z,95523.63
2019-03-17T10:31:10.123Z,95523.89
2019-03-17T10:33:58.065Z,95519.58
2019-03-17T10:36:45.926Z,95521.38
2019-03-17T10:39:33.810Z,95521.59
2019-03-17T10:42:21.701Z,95514.55
2019-03-17T10:45:09.587Z,95515.73
2019-03-17T10:47:38.376Z,95520.35
2019-03-17T10:50:26.365Z,95494.52
2019-03-17T10:53:14.227Z,95499.45
2019-03-17T10:55:43.005Z,95498.09
2019-03-17T10:58:30.847Z,95487.85
2019-03-17T11:01:18.652Z,95483.06
2019-03-17T11:04:06.507Z,95470.30
2019-03-17T11:06:35.209Z,95476.70
2019-03-17T11:12:12.128Z,95471.61
2019-03-17T11:14:40.795Z,95461.38
2019-03-17T11:17:09.506Z,95466.58
2019-03-17T11:19:57.432Z,95472.13
2019-03-17T11:22:26.074Z,95479.30
2019-03-17T11:25:14.022Z,95472.66
2019-03-17T11:28:01.842Z,95455.74
2019-03-17T11:30:49.662Z,95458.37
2019-03-17T11:33:37.654Z,95456.92
2019-03-17T11:36:06.366Z,95452.69
2019-03-17T11:38:54.046Z,95462.70
2019-03-17T11:41:41.963Z,95474.11
2019-03-17T11:44:29.941Z,95467.78
2019-03-17T11:46:58.618Z,95459.27
2019-03-17T11:49:46.621Z,95462.72
2019-03-17T11:52:15.438Z,95462.82
2019-03-17T11:55:03.409Z,95469.08
2019-03-17T11:57:32.042Z,95472.45
2019-03-17T12:00:00.775Z,95454.44
2019-03-17T12:02:48.681Z,95463.09
2019-03-17T12:05:17.471Z,95457.31
2019-03-17T12:07:46.236Z,95456.52
2019-03-17T12:10:34.189Z,95448.22
2019-03-17T12:13:02.958Z,95450.52
2019-03-17T12:16:11.415Z,95453.46
2019-03-17T12:18:59.294Z,95444.86
2019-03-17T12:21:47.174Z,95460.03
2019-03-17T12:24:35.264Z,95463.14
2019-03-17T12:27:03.975Z,95441.51
2019-03-17T12:32:39.476Z,95435.83
2019-03-17T12:35:08.266Z,95436.35
2019-03-17T12:37:37.018Z,95449.45
2019-03-17T12:43:14.250Z,95443.59
2019-03-17T12:48:50.128Z,95459.42
2019-03-17T12:51:38.101Z,95427.64
2019-03-17T12:54:26.115Z,95441.83
2019-03-17T12:57:14.435Z,95443.76
2019-03-17T12:59:43.149Z,95434.56
2019-03-17T13:02:31.076Z,95434.91
2019-03-17T13:14:12.772Z,95446.08
2019-03-17T13:17:00.752Z,95450.37
2019-03-17T13:19:48.868Z,95447.88
2019-03-17T13:22:36.893Z,95459.46
2019-03-17T13:25:25.081Z,95470.05
2019-03-17T13:28:13.044Z,95466.94
2019-03-17T13:31:01.189Z,95490.91
2019-03-17T13:42:20.584Z,95506.00
2019-03-17T13:45:08.483Z,95530.81
2019-03-17T13:50:44.413Z,95534.59
2019-03-17T13:53:32.448Z,95538.44
2019-03-17T13:56:20.663Z,95549.67
2019-03-17T13:58:49.538Z,95565.37
2019-03-17T14:01:56.793Z,95560.38
2019-03-17T14:04:25.682Z,95570.16
2019-03-17T14:07:13.672Z,95593.61
2019-03-17T14:09:42.571Z,95598.45
2019-03-17T14:12:30.719Z,95606.41
2019-03-17T14:15:18.808Z,95617.81
2019-03-17T14:18:07.101Z,95645.45
2019-03-17T14:20:55.103Z,95687.23
2019-03-17T14:23:24.033Z,95668.77
2019-03-17T14:26:12.168Z,95687.28
2019-03-17T14:29:00.427Z,95703.02
2019-03-17T14:31:48.659Z,95711.83
2019-03-17T14:34:36.914Z,95720.61
2019-03-17T14:37:26.705Z,95741.30
2019-03-17T14:42:50.782Z,95790.19
2019-03-17T14:45:39.022Z,95806.11
2019-03-17T14:48:27.257Z,95816.36
2019-03-17T14:51:15.338Z,95828.98
2019-03-17T14:57:10.444Z,95846.67
2019-03-17T15:03:05.554Z,95855.13
2019-03-17T15:08:22.100Z,95862.52
2019-03-17T15:14:17.197Z,95883.95
2019-03-17T15:17:05.334Z,95908.15
2019-03-17T15:23:00.431Z,95938.95
2019-03-17T15:28:55.595Z,95957.89
2019-03-17T15:32:04.266Z,95960.06
2019-03-17T15:34:52.449Z,95958.78
2019-03-17T15:37:40.702Z,95995.88
2019-03-17T15:43:02.641Z,95982.39
2019-03-17T15:45:50.789Z,95980.02
2019-03-17T15:48:19.675Z,95986.47
2019-03-17T15:51:28.297Z,95988.59
2019-03-17T15:54:16.444Z,95987.05
2019-03-17T15:59:59.791Z,95967.65
2019-03-17T16:02:47.968Z,95960.90
2019-03-17T16:05:36.278Z,95963.80
2019-03-17T16:08:24.554Z,95966.23
2019-03-17T16:14:00.487Z,95968.02
2019-03-17T16:17:09.158Z,95981.03
2019-03-17T16:19:38.130Z,95987.41
2019-03-17T16:22:08.745Z,95977.03
2019-03-17T16:24:57.140Z,95984.71
2019-03-17T16:27:26.083Z,95984.22
2019-03-17T16:30:33.510Z,95973.16
2019-03-17T16:33:22.037Z,95975.91
2019-03-17T16:36:10.172Z,95989.70
2019-03-17T16:45:00.430Z,95999.98
2019-03-17T16:47:48.851Z,95998.84
2019-03-17T16:53:45.608Z,95996.80
2019-03-17T16:56:33.804Z,95987.52
2019-03-17T16:59:22.007Z,95988.04
2019-03-17T17:02:30.692Z,95989.86
2019-03-17T17:08:28.320Z,95989.34
2019-03-17T17:14:06.428Z,95988.22
2019-03-17T17:20:03.296Z,95997.52
2019-03-17T17:28:41.855Z,96000.47
2019-03-17T17:31:30.107Z,96001.26
2019-03-17T17:39:59.169Z,96011.25
2019-03-17T17:42:28.128Z,96010.94
2019-03-17T17:45:36.882Z,96019.02
2019-03-17T17:51:32.071Z,96030.03
2019-03-17T17:57:29.002Z,96043.50
2019-03-17T18:00:37.640Z,96045.45
2019-03-17T18:03:25.820Z,96053.63
2019-03-17T18:06:14.267Z,96049.70
2019-03-17T18:09:02.700Z,96050.49
2019-03-17T18:11:50.853Z,96062.22
2019-03-17T18:14:39.104Z,96063.53
2019-03-17T18:17:27.342Z,96074.38
2019-03-17T18:20:15.577Z,96083.25
2019-03-17T18:23:03.828Z,96084.67
2019-03-17T18:25:52.079Z,96091.72
2019-03-17T18:28:40.369Z,96091.13
2019-03-17T18:31:28.422Z,96091.79
2019-03-17T18:34:16.600Z,96090.91
2019-03-17T18:37:04.845Z,96096.93
2019-03-17T18:43:07.134Z,96107.82
2019-03-17T18:46:17.712Z,96108.31
2019-03-17T18:52:00.295Z,96127.59
2019-03-17T18:57:57.343Z,96155.14
2019-03-17T19:00:45.808Z,96175.16
2019-03-17T19:03:34.353Z,96176.93
2019-03-17T19:12:14.994Z,96220.95
2019-03-17T19:15:03.539Z,96227.22
2019-03-17T19:17:51.926Z,96245.00
2019-03-17T19:23:47.135Z,96255.62
2019-03-17T19:26:35.380Z,96262.15
2019-03-17T19:34:44.341Z,96258.33
2019-03-17T19:37:34.528Z,96264.16
2019-03-17T19:40:41.844Z,96272.50
2019-03-17T19:52:25.093Z,96258.43
2019-03-17T19:55:13.357Z,96276.64
2019-03-17T19:58:03.193Z,96276.05
2019-03-17T20:00:32.696Z,96264.53
2019-03-17T20:09:30.190Z,96302.33
2019-03-17T20:18:41.542Z,96309.46
2019-03-17T20:21:50.589Z,96314.50
2019-03-17T20:27:45.479Z,96316.56
2019-03-17T20:42:36.110Z,96340.11
2019-03-17T20:45:44.889Z,96332.28
2019-03-17T20:48:33.592Z,96337.94
2019-03-17T20:51:21.836Z,96354.92
2019-03-17T20:54:32.196Z,96371.88
2019-03-17T20:57:20.425Z,96363.97
2019-03-17T21:00:08.678Z,96376.35
2019-03-17T21:08:51.691Z,96389.70
2019-03-17T21:14:34.617Z,96402.56
2019-03-17T21:19:57.125Z,96408.27
2019-03-17T21:22:45.013Z,96402.75
2019-03-17T21:25:33.306Z,96394.98
2019-03-17T21:31:20.558Z,96411.06
2019-03-17T21:34:08.802Z,96413.75
2019-03-17T21:40:06.577Z,96419.23
2019-03-17T21:42:54.714Z,96419.37
2019-03-17T21:48:30.592Z,96437.73
2019-03-17T21:51:18.756Z,96448.13
2019-03-17T21:54:06.984Z,96449.19
2019-03-17T21:56:55.015Z,96445.55
2019-03-17T21:59:43.086Z,96452.67
2019-03-17T22:02:31.098Z,96451.25
2019-03-17T22:05:19.168Z,96450.91
2019-03-17T22:08:27.903Z,96446.55
2019-03-17T22:11:36.892Z,96438.05
2019-03-17T22:14:25.122Z,96443.19
2019-03-17T22:25:58.589Z,96458.73
2019-03-17T22:28:46.476Z,96450.88
2019-03-17T22:31:34.319Z,96456.39
2019-03-17T22:34:22.253Z,96473.59
2019-03-17T22:37:10.295Z,96480.80
2019-03-17T22:39:38.817Z,96489.31
2019-03-17T22:42:27.049Z,96502.65
2019-03-17T22:44:57.396Z,96487.83
2019-03-17T22:47:45.679Z,96480.08
2019-03-17T22:50:35.456Z,96489.98
2019-03-17T22:53:23.354Z,96489.16
2019-03-17T22:56:11.928Z,96483.34
2019-03-17T22:59:20.357Z,96497.01
2019-03-17T23:05:15.199Z,96499.59
2019-03-17T23:08:23.642Z,96496.70
2019-03-17T23:11:11.539Z,96502.85
2019-03-17T23:13:59.403Z,96502.58
2019-03-17T23:16:47.302Z,96506.88
2019-03-17T23:19:35.182Z,96497.77
2019-03-17T23:22:23.067Z,96507.25
2019-03-17T23:25:10.902Z,96508.80
2019-03-17T23:28:19.362Z,96518.70
2019-03-17T23:31:07.223Z,96519.80
2019-03-17T23:39:04.144Z,96523.13
2019-03-17T23:41:34.408Z,96526.25
2019-03-17T23:44:03.216Z,96531.34
2019-03-17T23:46:52.870Z,96539.48
2019-03-17T23:49:40.707Z,96534.39
2019-03-17T23:52:28.970Z,96526.32
2019-03-17T23:55:16.799Z,96525.33
2019-03-17T23:58:04.676Z,96521.78
